Latest Weather Observations for West Roebuck

IDW60801

Issued at 9:03 pm WST Sunday 5 July 2015 (issued every 30 minutes, with the page automatically refreshed every 10 minutes)

About weather observations | Map of weather stations | Latest weather observations for WA | Other Formats
Station Details ID: 003096 Name: WEST ROEBUCK Lat: -17.90 Lon: 122.31 Height: 32.0 m
Data from the previous 72 hours. | See also: Recent months for locations in Western Australia
Date/Time
WST
Temp
°C
App
Temp
°C
Dew
Point
Rel
Hum
%
Delta-T
°C
Wind Press
QNH
hPa
Press
MSL
hPa
Rain
since 9 am
mm
Dir
 
Spd
km/h
Gust
km/h
Spd
kts
Gust
kts
05/09:00pm 15.7 - - - - SSW 9 11 5 6 - - 0.0
05/08:30pm 16.1 - - - - SSW 13 13 7 7 - - 0.0
05/08:00pm 16.1 - - - - S 11 13 6 7 - - 0.0
05/07:30pm 15.8 - - - - S 7 11 4 6 - - 0.0
05/07:00pm 17.8 - - - - S 9 11 5 6 - - 0.0
05/06:30pm 18.3 - - - - SSW 9 13 5 7 - - 0.0
05/06:00pm 19.4 - - - - SSW 9 11 5 6 - - 0.0
05/05:30pm 22.0 - - - - S 9 11 5 6 - - 0.0
05/05:00pm 25.1 - - - - S 9 11 5 6 - - 0.0
05/04:30pm 27.2 - - - - SSE 13 17 7 9 - - 0.0
05/04:00pm 28.5 - - - - SSE 15 20 8 11 - - 0.0
05/03:30pm 29.6 - - - - SE 11 19 6 10 - - 0.0
05/03:00pm 29.2 - - - - E 11 17 6 9 - - 0.0
05/02:30pm 28.9 - - - - E 7 17 4 9 - - 0.0
05/02:00pm 29.8 - - - - ESE 13 20 7 11 - - 0.0
05/01:30pm 29.3 - - - - NE 9 20 5 11 - - 0.0
05/01:00pm 29.0 - - - - ESE 11 22 6 12 - - 0.0
05/12:30pm 28.2 - - - - ESE 13 24 7 13 - - 0.0
05/12:00pm 28.4 - - - - E 9 20 5 11 - - 0.0
05/11:30am 27.7 - - - - ENE 15 24 8 13 - - 0.0
05/11:00am 27.6 - - - - E 17 26 9 14 - - 0.0
05/10:30am 26.1 - - - - ENE 17 28 9 15 - - 0.0
05/10:00am 25.4 - - - - ENE 17 28 9 15 - - 0.0
05/09:30am 24.4 - - - - ENE 17 24 9 13 - - 0.0
05/09:00am 22.9 - - - - E 17 30 9 16 - - 0.0
05/08:30am 20.7 - - - - E 15 24 8 13 - - 0.0
05/08:00am 18.4 - - - - E 11 17 6 9 - - 0.0
05/07:30am 16.1 - - - - ENE 9 13 5 7 - - 0.0
05/07:00am 12.8 - - - - ENE 11 13 6 7 - - 0.0
05/06:30am 10.3 - - - - ENE 11 13 6 7 - - 0.0
05/06:00am 10.2 - - - - ENE 11 13 6 7 - - 0.0
05/05:30am 9.6 - - - - ENE 11 13 6 7 - - 0.0
05/05:00am 8.4 - - - - E 11 13 6 7 - - 0.0
05/04:30am 9.6 - - - - ESE 9 11 5 6 - - 0.0
05/04:00am 10.8 - - - - ESE 11 13 6 7 - - 0.0
05/03:30am 12.7 - - - - ESE 11 15 6 8 - - 0.0
05/03:00am 13.9 - - - - ESE 13 15 7 8 - - 0.0
05/02:30am 14.4 - - - - ESE 13 17 7 9 - - 0.0
05/02:00am 15.5 - - - - ESE 13 20 7 11 - - 0.0
05/01:30am 16.0 - - - - ESE 15 19 8 10 - - 0.0
05/01:00am 16.4 - - - - ESE 15 20 8 11 - - 0.0
05/12:30am 17.6 - - - - ESE 15 24 8 13 - - 0.0
05/12:00am 16.5 - - - - ESE 13 19 7 10 - - 0.0
 
Date/Time
WST
Temp
°C
App
Temp
°C
Dew
Point
Rel
Hum
%
Delta-T
°C
Wind Press
QNH
hPa
Press
MSL
hPa
Rain
since 9 am
mm
Dir
 
Spd
km/h
Gust
km/h
Spd
kts
Gust
kts
04/11:30pm 16.6 - - - - ESE 13 17 7 9 - - 0.0
04/11:00pm 15.9 - - - - ESE 11 15 6 8 - - 0.0
04/10:30pm 15.8 - - - - E 9 9 5 5 - - 0.0
04/10:00pm 18.1 - - - - ESE 11 15 6 8 - - 0.0
04/09:30pm 17.2 - - - - ESE 11 13 6 7 - - 0.0
04/09:00pm 17.1 - - - - ESE 11 13 6 7 - - 0.0
04/08:30pm 18.6 - - - - ESE 11 13 6 7 - - 0.0
04/08:00pm 20.5 - - - - ESE 9 13 5 7 - - 0.0
04/07:30pm 22.8 - - - - SE 13 19 7 10 - - 0.0
04/07:00pm 23.1 - - - - SSE 13 19 7 10 - - 0.0
04/06:30pm 22.2 - - - - SSE 11 15 6 8 - - 0.0
04/06:00pm 22.8 - - - - SSE 11 13 6 7 - - 0.0
04/05:30pm 25.4 - - - - S 9 11 5 6 - - 0.0
04/05:00pm 27.9 - - - - SSE 11 15 6 8 - - 0.0
04/04:30pm 29.4 - - - - S 13 20 7 11 - - 0.0
04/04:00pm 30.2 - - - - SSE 13 19 7 10 - - 0.0
04/03:30pm 30.4 - - - - SE 13 19 7 10 - - 0.0
04/03:00pm 31.2 - - - - SE 13 20 7 11 - - 0.0
04/02:30pm 30.5 - - - - SE 15 24 8 13 - - 0.0
04/02:00pm 31.1 - - - - SE 17 30 9 16 - - 0.0
04/01:30pm 30.9 - - - - ESE 17 32 9 17 - - 0.0
04/01:00pm 30.5 - - - - ESE 20 41 11 22 - - 0.0
04/12:30pm 30.1 - - - - ESE 24 35 13 19 - - 0.0
04/12:00pm 30.2 - - - - E 22 37 12 20 - - 0.0
04/11:30am 29.8 - - - - ESE 24 39 13 21 - - 0.0
04/11:00am 29.8 - - - - E 20 32 11 17 - - 0.0
04/10:30am 28.5 - - - - E 26 41 14 22 - - 0.0
04/10:00am 27.5 - - - - E 26 44 14 24 - - 0.0
04/09:30am 26.8 - - - - E 24 39 13 21 - - 0.0
04/09:00am 25.3 - - - - E 24 39 13 21 - - 0.0
04/08:30am 23.9 - - - - E 22 33 12 18 - - 0.0
04/08:00am 21.7 - - - - ESE 15 24 8 13 - - 0.0
04/07:30am 19.6 - - - - E 15 20 8 11 - - 0.0
04/07:00am 17.0 - - - - ESE 11 17 6 9 - - 0.0
04/06:30am 16.1 - - - - E 13 17 7 9 - - 0.0
04/06:00am 14.5 - - - - E 11 13 6 7 - - 0.0
04/05:30am 13.1 - - - - ENE 9 13 5 7 - - 0.0
04/05:00am 13.5 - - - - E 11 11 6 6 - - 0.0
04/04:30am 13.9 - - - - ESE 9 9 5 5 - - 0.0
04/04:00am 14.6 - - - - E 9 11 5 6 - - 0.0
04/03:30am 15.0 - - - - ESE 11 11 6 6 - - 0.0
04/03:00am 15.6 - - - - ESE 9 11 5 6 - - 0.0
04/02:30am 16.1 - - - - E 11 13 6 7 - - 0.0
04/02:00am 15.8 - - - - ESE 9 11 5 6 - - 0.0
04/01:30am 17.3 - - - - SE 11 13 6 7 - - 0.0
04/01:00am 17.7 - - - - ESE 11 13 6 7 - - 0.0
04/12:30am 17.5 - - - - ESE 11 13 6 7 - - 0.0
04/12:00am 18.1 - - - - ESE 11 15 6 8 - - 0.0
 
Date/Time
WST
Temp
°C
App
Temp
°C
Dew
Point
Rel
Hum
%
Delta-T
°C
Wind Press
QNH
hPa
Press
MSL
hPa
Rain
since 9 am
mm
Dir
 
Spd
km/h
Gust
km/h
Spd
kts
Gust
kts
03/11:30pm 17.8 - - - - E 11 13 6 7 - - 0.0
03/11:00pm 19.7 - - - - SE 11 17 6 9 - - 0.0
03/10:30pm 19.3 - - - - SE 9 13 5 7 - - 0.0
03/10:00pm 20.0 - - - - SE 9 13 5 7 - - 0.0
03/09:30pm 20.9 - - - - SE 11 13 6 7 - - 0.0
03/09:00pm 21.4 - - - - SSE 11 17 6 9 - - 0.0
03/08:30pm 20.8 - - - - S 7 9 4 5 - - 0.0
03/08:00pm 21.8 - - - - SSW 9 11 5 6 - - 0.0
03/07:30pm 22.7 - - - - SSW 9 17 5 9 - - 0.0
03/07:00pm 23.0 - - - - SSW 11 17 6 9 - - 0.0
03/06:30pm 23.2 - - - - SSW 11 13 6 7 - - 0.0
03/06:00pm 23.7 - - - - SSW 11 15 6 8 - - 0.0
03/05:30pm 25.7 - - - - S 11 15 6 8 - - 0.0
03/05:00pm 29.0 - - - - S 11 15 6 8 - - 0.0
03/04:30pm 30.9 - - - - SSE 13 24 7 13 - - 0.0
03/04:00pm 31.6 - - - - E 11 19 6 10 - - 0.0
03/03:30pm 32.1 - - - - E 11 20 6 11 - - 0.0
03/03:00pm 32.1 - - - - ESE 13 22 7 12 - - 0.0
03/02:30pm 32.0 - - - - ESE 13 22 7 12 - - 0.0
03/02:00pm 32.1 - - - - ESE 17 26 9 14 - - 0.0
03/01:30pm 32.1 - - - - SE 13 20 7 11 - - 0.0
03/01:00pm 31.6 - - - - SE 17 30 9 16 - - 0.0
03/12:30pm 31.6 - - - - SE 17 28 9 15 - - 0.0
03/12:00pm 31.1 - - - - ESE 19 28 10 15 - - 0.0
03/11:30am 31.2 - - - - E 19 32 10 17 - - 0.0
03/11:00am 30.8 - - - - E 22 37 12 20 - - 0.0
03/10:30am 30.1 - - - - ESE 22 32 12 17 - - 0.0
03/10:00am 29.5 - - - - E 20 33 11 18 - - 0.0
03/09:30am 28.2 - - - - ESE 20 30 11 16 - - 0.0
03/09:00am 27.0 - - - - ESE 17 28 9 15 - - 0.0
03/08:30am 24.0 - - - - ESE 15 22 8 12 - - 0.0
03/08:00am 21.2 - - - - SE 15 20 8 11 - - 0.0
03/07:30am 18.8 - - - - SE 9 13 5 7 - - 0.0
03/07:00am 15.8 - - - - ESE 11 13 6 7 - - 0.0
03/06:30am 14.0 - - - - E 11 13 6 7 - - 0.0
03/06:00am 14.4 - - - - ENE 9 13 5 7 - - 0.0
03/05:30am 14.5 - - - - ENE 11 13 6 7 - - 0.0
03/05:00am 14.8 - - - - E 9 13 5 7 - - 0.0
03/04:30am 14.8 - - - - ESE 9 11 5 6 - - 0.0
03/04:00am 15.6 - - - - ENE 9 11 5 6 - - 0.0
03/03:30am 15.4 - - - - E 9 13 5 7 - - 0.0
03/03:00am 15.6 - - - - ESE 11 13 6 7 - - 0.0
03/02:30am 15.7 - - - - ESE 9 11 5 6 - - 0.0
03/02:00am 16.2 - - - - ESE 9 13 5 7 - - 0.0
03/01:30am 17.1 - - - - ESE 11 13 6 7 - - 0.0
03/01:00am 17.4 - - - - ESE 11 13 6 7 - - 0.0
03/12:30am 18.3 - - - - ESE 9 13 5 7 - - 0.0
03/12:00am 18.9 - - - - SE 11 13 6 7 - - 0.0
 
Date/Time
WST
Temp
°C
App
Temp
°C
Dew
Point
Rel
Hum
%
Delta-T
°C
Wind Press
QNH
hPa
Press
MSL
hPa
Rain
since 9 am
mm
Dir
 
Spd
km/h
Gust
km/h
Spd
kts
Gust
kts
02/11:30pm 18.9 - - - - ESE 9 13 5 7 - - 0.0
02/11:00pm 20.0 - - - - SE 11 15 6 8 - - 0.0
02/10:30pm 20.3 - - - - S 7 9 4 5 - - 0.0
02/10:00pm 21.3 - - - - WSW 11 13 6 7 - - 0.0
02/09:30pm 22.0 - - - - WSW 11 17 6 9 - - 0.0

Other Formats:

Comma delimited format used in spreadsheet applications
http://www.bom.gov.au/fwo/IDW60801/IDW60801.95204.axf

JavaScript Object Notation format (JSON) in row-major order
http://www.bom.gov.au/fwo/IDW60801/IDW60801.95204.json